Time;durP1;ratioP1;P1;durP2;ratioP2;P2;SDS_P1;SDS_P2;PMS_P1;PMS_P2;Temp;Humidity;BMP_temperature;BMP_pressure;BME280_temperature;BME280_humidity;BME280_pressure;Samples;Min_cycle;Max_cycle;Signal;HPM_P1;HPM_P2
2022/12/02 00:04:31;;;;;;;10.60;8.93;;;;;;;;;;10238321;28;20084;-64
2022/12/02 00:09:30;;;;;;;8.35;7.10;;;;;;;;;;10239322;28;20049;-62
2022/12/02 00:14:33;;;;;;;8.85;7.05;;;;;;;;;;10239321;28;20068;-63
2022/12/02 00:19:31;;;;;;;10.30;7.63;;;;;;;;;;10236909;28;20050;-63
2022/12/02 00:24:29;;;;;;;10.73;8.43;;;;;;;;;;10238406;28;20498;-65
2022/12/02 00:29:28;;;;;;;10.68;8.63;;;;;;;;;;10238600;28;20053;-66
2022/12/02 00:34:27;;;;;;;9.75;8.05;;;;;;;;;;10237309;28;20467;-62
2022/12/02 00:39:25;;;;;;;9.25;8.15;;;;;;;;;;10236122;28;20546;-63
2022/12/02 00:49:40;;;;;;;9.98;8.98;;;;;;;;;;10236466;28;20041;-63
2022/12/02 00:54:39;;;;;;;13.35;9.18;;;;;;;;;;10237091;28;20080;-62
2022/12/02 00:59:37;;;;;;;14.45;9.63;;;;;;;;;;10235239;28;20049;-64
2022/12/02 01:04:35;;;;;;;11.05;8.65;;;;;;;;;;10236909;28;20506;-64
2022/12/02 01:09:35;;;;;;;10.93;8.48;;;;;;;;;;10235990;28;20050;-63
2022/12/02 01:14:33;;;;;;;10.18;8.35;;;;;;;;;;10237096;28;20057;-63
2022/12/02 01:24:48;;;;;;;9.45;7.95;;;;;;;;;;10235385;28;20079;-63
2022/12/02 01:29:47;;;;;;;11.88;9.65;;;;;;;;;;10236084;28;20514;-63
2022/12/02 01:34:45;;;;;;;10.30;8.48;;;;;;;;;;10234095;28;20053;-63
2022/12/02 01:39:43;;;;;;;9.10;7.75;;;;;;;;;;10233717;28;20053;-63
2022/12/02 01:44:43;;;;;;;10.93;8.32;;;;;;;;;;10235730;28;20073;-63
2022/12/02 01:49:41;;;;;;;10.80;9.32;;;;;;;;;;10233800;28;20056;-63
2022/12/02 01:54:39;;;;;;;10.82;9.30;;;;;;;;;;10235849;28;20084;-64
2022/12/02 01:59:38;;;;;;;9.23;7.75;;;;;;;;;;10233611;28;20057;-63
2022/12/02 02:04:37;;;;;;;8.93;7.60;;;;;;;;;;10240923;28;20050;-64
2022/12/02 02:09:35;;;;;;;10.23;8.65;;;;;;;;;;10242210;28;20423;-64
2022/12/02 02:14:34;;;;;;;13.18;9.75;;;;;;;;;;10242542;28;20061;-64
2022/12/02 02:19:33;;;;;;;10.68;9.18;;;;;;;;;;10241730;28;20414;-64
2022/12/02 02:24:32;;;;;;;10.43;8.65;;;;;;;;;;10241414;28;20442;-64
2022/12/02 02:29:31;;;;;;;11.73;9.38;;;;;;;;;;10240423;28;20124;-62
2022/12/02 02:34:30;;;;;;;10.07;8.82;;;;;;;;;;10242648;28;20044;-63
2022/12/02 02:39:29;;;;;;;20.77;13.27;;;;;;;;;;10241351;28;20495;-63
2022/12/02 02:44:29;;;;;;;14.25;11.07;;;;;;;;;;10239233;28;20052;-64
2022/12/02 02:49:28;;;;;;;20.23;14.05;;;;;;;;;;10240533;28;20081;-63
2022/12/02 02:54:26;;;;;;;17.63;12.90;;;;;;;;;;10240258;28;20045;-63
2022/12/02 02:59:25;;;;;;;16.45;11.73;;;;;;;;;;10239777;28;20057;-63
2022/12/02 03:04:26;;;;;;;12.18;9.85;;;;;;;;;;10240231;28;20057;-63
2022/12/02 03:09:25;;;;;;;19.50;13.27;;;;;;;;;;10239618;28;20093;-63
2022/12/02 03:14:23;;;;;;;25.75;12.40;;;;;;;;;;10240940;28;20096;-64
2022/12/02 03:19:22;;;;;;;11.98;9.05;;;;;;;;;;10240146;28;20046;-64
2022/12/02 03:24:21;;;;;;;11.57;9.45;;;;;;;;;;10240782;28;20044;-64
2022/12/02 03:29:20;;;;;;;12.27;9.82;;;;;;;;;;10240609;28;20605;-64
2022/12/02 03:34:18;;;;;;;12.68;9.63;;;;;;;;;;10238281;28;20045;-63
2022/12/02 03:39:16;;;;;;;12.85;9.50;;;;;;;;;;10240377;28;20510;-63
2022/12/02 03:44:16;;;;;;;12.68;11.07;;;;;;;;;;10240106;28;20069;-63
2022/12/02 03:49:15;;;;;;;12.20;10.18;;;;;;;;;;10238007;28;20057;-64
2022/12/02 03:54:14;;;;;;;13.40;10.82;;;;;;;;;;10240027;28;20069;-63
2022/12/02 03:59:19;;;;;;;13.38;10.10;;;;;;;;;;10239644;28;20065;-63
2022/12/02 04:04:18;;;;;;;14.07;11.05;;;;;;;;;;10238924;28;20483;-63
2022/12/02 04:09:17;;;;;;;15.43;12.18;;;;;;;;;;10237700;28;20076;-63
2022/12/02 04:14:15;;;;;;;18.73;13.50;;;;;;;;;;10239285;28;20414;-63
2022/12/02 04:19:14;;;;;;;23.08;15.90;;;;;;;;;;10238841;28;20073;-63
2022/12/02 04:24:13;;;;;;;19.05;14.88;;;;;;;;;;10254210;28;20061;-63
2022/12/02 04:29:12;;;;;;;16.55;13.57;;;;;;;;;;10274072;28;20072;-63
2022/12/02 04:34:10;;;;;;;15.73;12.88;;;;;;;;;;10246371;28;20080;-64
2022/12/02 04:39:08;;;;;;;16.02;12.95;;;;;;;;;;10237282;28;20037;-64
2022/12/02 04:44:07;;;;;;;16.98;13.60;;;;;;;;;;10238099;28;20092;-64
2022/12/02 04:49:12;;;;;;;28.38;21.40;;;;;;;;;;10237826;28;20498;-63
2022/12/02 04:54:10;;;;;;;17.52;14.07;;;;;;;;;;10239035;28;20438;-64
2022/12/02 04:59:09;;;;;;;21.52;16.38;;;;;;;;;;10237303;28;20073;-63
2022/12/02 05:04:08;;;;;;;20.42;15.38;;;;;;;;;;10238603;28;20080;-63
2022/12/02 05:09:06;;;;;;;16.60;14.52;;;;;;;;;;10236157;28;20092;-63
2022/12/02 10:42:40;;;;;;;30.17;21.30;;;;;;;;;;10282162;28;20072;-68
2022/12/02 10:47:38;;;;;;;30.45;20.70;;;;;;;;;;10281793;28;20076;-67
2022/12/02 10:52:43;;;;;;;40.60;22.08;;;;;;;;;;10282246;28;20449;-67
2022/12/02 10:57:43;;;;;;;43.95;29.92;;;;;;;;;;10282187;28;20076;-67
2022/12/02 11:02:44;;;;;;;59.33;38.22;;;;;;;;;;10281375;28;20068;-67
2022/12/02 11:07:50;;;;;;;74.55;59.92;;;;;;;;;;10280995;28;20128;-67
2022/12/02 11:13:02;;;;;;;34.72;21.85;;;;;;;;;;10281299;28;20049;-67
2022/12/02 11:18:01;;;;;;;43.15;27.08;;;;;;;;;;10280975;28;20144;-65
2022/12/02 11:23:15;;;;;;;39.88;25.70;;;;;;;;;;10280352;28;20510;-68
2022/12/02 11:28:30;;;;;;;49.35;34.47;;;;;;;;;;10281609;28;20088;-66
2022/12/02 11:33:44;;;;;;;50.03;34.15;;;;;;;;;;10280850;28;20037;-66
2022/12/02 11:39:00;;;;;;;40.83;26.48;;;;;;;;;;10270297;28;20512;-67
2022/12/02 11:44:16;;;;;;;32.75;21.45;;;;;;;;;;10278993;28;20064;-66
2022/12/02 11:49:27;;;;;;;40.25;27.08;;;;;;;;;;10280317;28;20107;-67
2022/12/02 11:54:25;;;;;;;44.60;30.17;;;;;;;;;;10278428;28;20052;-66
2022/12/02 11:59:25;;;;;;;45.92;33.13;;;;;;;;;;10280064;28;20052;-66
2022/12/02 12:04:28;;;;;;;38.97;25.60;;;;;;;;;;10280007;28;20041;-67
2022/12/02 12:09:28;;;;;;;43.60;29.30;;;;;;;;;;10279263;28;20065;-66
2022/12/02 12:14:26;;;;;;;41.30;26.35;;;;;;;;;;10279550;28;20077;-68
2022/12/02 12:19:27;;;;;;;51.30;32.28;;;;;;;;;;10278027;28;20074;-67
2022/12/02 12:24:31;;;;;;;76.38;39.58;;;;;;;;;;10278396;28;20064;-67
2022/12/02 12:29:30;;;;;;;114.38;55.35;;;;;;;;;;10277671;28;20051;-64
2022/12/02 12:34:29;;;;;;;33.85;23.83;;;;;;;;;;10278997;28;20083;-65
2022/12/02 12:39:27;;;;;;;46.22;30.50;;;;;;;;;;10277068;28;20074;-65
2022/12/02 12:44:27;;;;;;;33.53;23.88;;;;;;;;;;10277415;28;20049;-64
2022/12/02 12:49:29;;;;;;;36.47;25.33;;;;;;;;;;10278332;28;20076;-66
2022/12/02 12:54:27;;;;;;;40.55;26.73;;;;;;;;;;10277883;28;20081;-66
2022/12/02 12:59:27;;;;;;;37.50;25.58;;;;;;;;;;10276845;28;20072;-66
2022/12/02 13:04:25;;;;;;;43.63;30.65;;;;;;;;;;10277641;28;20049;-66
2022/12/02 13:09:23;;;;;;;29.27;21.02;;;;;;;;;;10277383;28;20443;-66
2022/12/02 13:14:21;;;;;;;39.38;27.10;;;;;;;;;;10276516;28;20069;-66
2022/12/02 13:19:21;;;;;;;33.63;20.55;;;;;;;;;;10275938;28;20041;-64
2022/12/02 13:24:19;;;;;;;30.55;21.80;;;;;;;;;;10276946;28;20048;-65
2022/12/02 13:29:18;;;;;;;34.20;22.60;;;;;;;;;;10275678;28;20075;-64
2022/12/02 13:34:16;;;;;;;64.15;36.58;;;;;;;;;;10275673;28;20076;-65
2022/12/02 13:39:15;;;;;;;56.22;34.40;;;;;;;;;;10276253;28;20083;-65
2022/12/02 13:44:14;;;;;;;36.58;24.88;;;;;;;;;;10277081;28;20057;-65
2022/12/02 13:49:12;;;;;;;31.38;21.63;;;;;;;;;;10275034;28;20084;-64
2022/12/02 13:54:10;;;;;;;37.33;26.13;;;;;;;;;;10276037;28;20044;-64
2022/12/02 13:59:10;;;;;;;35.78;25.75;;;;;;;;;;10275614;28;20076;-65
2022/12/02 14:04:08;;;;;;;55.67;32.85;;;;;;;;;;10275810;28;20564;-65
2022/12/02 14:09:06;;;;;;;36.13;23.63;;;;;;;;;;10275121;28;20510;-64
2022/12/02 14:14:04;;;;;;;36.10;26.80;;;;;;;;;;10275866;28;20049;-65
2022/12/02 14:19:04;;;;;;;37.42;27.73;;;;;;;;;;10275606;28;20037;-64
2022/12/02 14:24:02;;;;;;;29.23;22.25;;;;;;;;;;10275335;28;20041;-65
2022/12/02 14:29:00;;;;;;;33.90;23.23;;;;;;;;;;10275492;28;20092;-65
2022/12/02 14:33:58;;;;;;;39.63;27.67;;;;;;;;;;10275233;28;20069;-65
2022/12/02 14:39:11;;;;;;;37.67;25.52;;;;;;;;;;10274503;28;20056;-65
2022/12/02 14:44:10;;;;;;;40.08;23.70;;;;;;;;;;10274992;28;20080;-66
2022/12/02 14:49:08;;;;;;;46.47;30.20;;;;;;;;;;10275015;28;20081;-66
2022/12/02 14:54:27;;;;;;;70.68;44.95;;;;;;;;;;10274137;28;20053;-66
2022/12/02 14:59:26;;;;;;;71.78;44.35;;;;;;;;;;10274782;28;20051;-66
2022/12/02 15:04:27;;;;;;;47.22;33.45;;;;;;;;;;10275041;28;20538;-66
2022/12/02 15:09:26;;;;;;;45.47;31.90;;;;;;;;;;10273630;28;20087;-66
2022/12/02 15:14:25;;;;;;;53.78;33.78;;;;;;;;;;10281687;28;20044;-65
2022/12/02 15:19:23;;;;;;;40.10;28.27;;;;;;;;;;10280257;28;20041;-65
2022/12/02 15:24:22;;;;;;;45.97;33.95;;;;;;;;;;10280245;28;20494;-64
2022/12/02 15:29:20;;;;;;;48.05;34.55;;;;;;;;;;10280306;28;20083;-66
2022/12/02 15:34:19;;;;;;;35.65;26.25;;;;;;;;;;10281070;28;20083;-64
2022/12/02 15:39:17;;;;;;;37.15;29.15;;;;;;;;;;10281151;28;20525;-66
2022/12/02 15:44:16;;;;;;;41.03;28.75;;;;;;;;;;10280259;28;20053;-66
2022/12/02 15:49:15;;;;;;;52.38;33.22;;;;;;;;;;10280130;28;20159;-65
2022/12/02 15:54:15;;;;;;;71.28;47.28;;;;;;;;;;10268204;28;20060;-66
2022/12/02 15:59:15;;;;;;;75.85;49.72;;;;;;;;;;10270062;28;20037;-66
2022/12/02 16:04:13;;;;;;;47.00;34.63;;;;;;;;;;10257897;28;20049;-65
2022/12/02 16:09:12;;;;;;;53.72;40.08;;;;;;;;;;10254215;28;20065;-66
2022/12/02 16:14:11;;;;;;;56.13;41.60;;;;;;;;;;10239322;28;20092;-63
2022/12/02 16:19:09;;;;;;;49.65;33.60;;;;;;;;;;10242227;28;20075;-63
2022/12/02 16:24:08;;;;;;;49.13;32.05;;;;;;;;;;10261640;28;20049;-64
2022/12/02 16:29:06;;;;;;;52.65;37.20;;;;;;;;;;10250846;28;20084;-64
2022/12/02 16:34:05;;;;;;;60.30;50.53;;;;;;;;;;10244854;28;20065;-64
2022/12/02 16:39:04;;;;;;;71.72;50.42;;;;;;;;;;10251483;28;20077;-64
2022/12/02 16:44:02;;;;;;;77.82;50.97;;;;;;;;;;10264124;28;20487;-65
2022/12/02 16:49:00;;;;;;;97.60;68.07;;;;;;;;;;10253404;28;20080;-65
2022/12/02 16:54:00;;;;;;;95.97;69.57;;;;;;;;;;10250309;28;20506;-65
2022/12/02 16:58:58;;;;;;;68.15;50.50;;;;;;;;;;10250443;28;20083;-64
2022/12/02 17:03:58;;;;;;;49.15;36.92;;;;;;;;;;10249184;28;20072;-64
2022/12/02 17:08:56;;;;;;;78.88;53.90;;;;;;;;;;10250170;28;20075;-65
2022/12/02 17:13:55;;;;;;;74.07;48.28;;;;;;;;;;10248812;28;20069;-63
2022/12/02 17:18:53;;;;;;;89.55;58.85;;;;;;;;;;10257511;28;20041;-64
2022/12/02 17:23:52;;;;;;;62.35;45.05;;;;;;;;;;10250052;28;20072;-65
2022/12/02 17:28:50;;;;;;;69.65;46.00;;;;;;;;;;10257028;28;20162;-65
2022/12/02 17:33:49;;;;;;;85.28;55.83;;;;;;;;;;10252851;28;20080;-65
2022/12/02 17:38:51;;;;;;;62.25;43.20;;;;;;;;;;10240828;28;20557;-64
2022/12/02 17:43:54;;;;;;;68.50;41.58;;;;;;;;;;10256336;28;20076;-64
2022/12/02 17:48:53;;;;;;;67.00;44.47;;;;;;;;;;10263664;28;20489;-64
2022/12/02 17:53:52;;;;;;;50.42;35.25;;;;;;;;;;10260706;28;20045;-64
2022/12/02 17:58:50;;;;;;;50.85;35.95;;;;;;;;;;10250042;28;20079;-64
2022/12/02 18:03:48;;;;;;;56.92;40.15;;;;;;;;;;10249247;28;20088;-65
2022/12/02 18:08:48;;;;;;;66.85;44.72;;;;;;;;;;10249626;28;20080;-64
2022/12/02 18:13:46;;;;;;;81.38;58.72;;;;;;;;;;10251372;28;20199;-64
2022/12/02 18:18:44;;;;;;;55.33;36.28;;;;;;;;;;10262096;28;20045;-64
2022/12/02 18:23:42;;;;;;;44.65;31.00;;;;;;;;;;10245940;28;20083;-64
2022/12/02 18:28:42;;;;;;;43.92;30.08;;;;;;;;;;10250733;28;20064;-63
2022/12/02 18:33:40;;;;;;;45.63;31.52;;;;;;;;;;10252819;28;20068;-64
2022/12/02 18:38:39;;;;;;;40.88;29.48;;;;;;;;;;10249987;28;20077;-64
2022/12/02 18:43:37;;;;;;;42.92;29.90;;;;;;;;;;10255061;28;20518;-64
2022/12/02 18:48:37;;;;;;;40.75;29.70;;;;;;;;;;10267404;28;20056;-64
2022/12/02 18:53:35;;;;;;;51.58;34.42;;;;;;;;;;10260765;28;20088;-64
2022/12/02 18:58:33;;;;;;;56.17;40.08;;;;;;;;;;10253575;28;20062;-64
2022/12/02 19:03:31;;;;;;;39.67;29.33;;;;;;;;;;10249405;28;20061;-64
2022/12/02 19:08:31;;;;;;;43.10;32.20;;;;;;;;;;10249109;28;20064;-64
2022/12/02 19:13:29;;;;;;;35.05;26.83;;;;;;;;;;10248256;28;20073;-64
2022/12/02 19:18:27;;;;;;;37.28;25.88;;;;;;;;;;10249911;28;20081;-64
2022/12/02 19:23:26;;;;;;;35.92;26.67;;;;;;;;;;10252361;28;20479;-64
2022/12/02 19:28:26;;;;;;;39.45;27.90;;;;;;;;;;10243696;28;20070;-64
2022/12/02 19:33:24;;;;;;;36.20;26.98;;;;;;;;;;10279670;28;20084;-64
2022/12/02 19:38:22;;;;;;;46.30;35.03;;;;;;;;;;10260448;28;20042;-64
2022/12/02 19:43:21;;;;;;;66.07;51.00;;;;;;;;;;10254612;28;20068;-64
2022/12/02 19:48:22;;;;;;;50.25;35.20;;;;;;;;;;10256346;28;20067;-63
2022/12/02 19:53:20;;;;;;;50.03;37.83;;;;;;;;;;10259110;28;20490;-65
2022/12/02 19:58:18;;;;;;;49.25;33.22;;;;;;;;;;10261737;28;20064;-63
2022/12/02 20:03:18;;;;;;;45.55;31.40;;;;;;;;;;10257459;28;20414;-63
2022/12/02 20:08:18;;;;;;;50.45;31.98;;;;;;;;;;10258594;28;20050;-63
2022/12/02 20:13:16;;;;;;;103.13;76.78;;;;;;;;;;10259227;28;20080;-64
2022/12/02 20:18:14;;;;;;;71.57;50.58;;;;;;;;;;10252176;28;20064;-63
2022/12/02 20:23:13;;;;;;;88.90;57.10;;;;;;;;;;10252351;28;20029;-63
2022/12/02 20:28:12;;;;;;;103.13;64.18;;;;;;;;;;10247536;28;20065;-64
2022/12/02 20:33:10;;;;;;;118.47;62.55;;;;;;;;;;10263353;28;20076;-64
2022/12/02 20:38:09;;;;;;;91.43;49.63;;;;;;;;;;10262363;28;20058;-63
2022/12/02 20:43:07;;;;;;;85.78;47.13;;;;;;;;;;10250116;28;20079;-63
2022/12/02 20:48:06;;;;;;;73.55;45.25;;;;;;;;;;10256336;28;20048;-63
2022/12/02 20:53:05;;;;;;;60.65;39.55;;;;;;;;;;10258422;28;20472;-63
2022/12/02 20:58:03;;;;;;;69.28;43.78;;;;;;;;;;10250883;28;20037;-64
2022/12/02 21:03:02;;;;;;;142.35;93.28;;;;;;;;;;10247103;28;20477;-64
2022/12/02 21:08:01;;;;;;;76.55;52.78;;;;;;;;;;10250113;28;20470;-63
2022/12/02 21:13:01;;;;;;;51.90;34.15;;;;;;;;;;10254661;28;20073;-64
2022/12/02 21:18:02;;;;;;;49.40;35.17;;;;;;;;;;10257677;28;20092;-64
2022/12/02 21:23:03;;;;;;;42.65;30.63;;;;;;;;;;10263626;28;20096;-63
2022/12/02 21:28:02;;;;;;;37.65;26.40;;;;;;;;;;10254879;28;20072;-63
2022/12/02 21:33:00;;;;;;;58.85;38.33;;;;;;;;;;10256192;28;20482;-63
2022/12/02 21:37:58;;;;;;;77.78;48.00;;;;;;;;;;10254351;28;20041;-64
2022/12/02 21:42:58;;;;;;;84.75;50.28;;;;;;;;;;10255721;28;20079;-64
2022/12/02 21:47:56;;;;;;;42.92;30.23;;;;;;;;;;10254761;28;20510;-64
2022/12/02 21:52:54;;;;;;;46.03;30.60;;;;;;;;;;10254861;28;20076;-64
2022/12/02 21:57:52;;;;;;;46.30;27.75;;;;;;;;;;10253940;28;20037;-63
2022/12/02 22:02:52;;;;;;;40.95;29.77;;;;;;;;;;10254270;28;20072;-63
2022/12/02 22:07:50;;;;;;;43.15;29.38;;;;;;;;;;10249937;28;20048;-65
2022/12/02 22:12:49;;;;;;;55.85;32.70;;;;;;;;;;10249899;28;20085;-63
2022/12/02 22:17:47;;;;;;;28.92;20.65;;;;;;;;;;10254345;28;20045;-63
2022/12/02 22:22:47;;;;;;;32.47;20.50;;;;;;;;;;10264269;28;20647;-63
2022/12/02 22:27:45;;;;;;;31.05;20.98;;;;;;;;;;10264028;28;20071;-63
2022/12/02 22:32:43;;;;;;;32.22;21.38;;;;;;;;;;10264297;28;20080;-63
2022/12/02 22:37:42;;;;;;;34.80;20.40;;;;;;;;;;10262404;28;20037;-63
2022/12/02 22:42:42;;;;;;;37.20;22.33;;;;;;;;;;10260665;28;20076;-64
2022/12/02 22:47:40;;;;;;;29.38;20.23;;;;;;;;;;10260811;28;20033;-63
2022/12/02 22:52:38;;;;;;;34.95;22.65;;;;;;;;;;10261934;28;20072;-64
2022/12/02 22:57:37;;;;;;;34.58;23.13;;;;;;;;;;10261505;28;20057;-64
2022/12/02 23:02:36;;;;;;;50.60;26.48;;;;;;;;;;10260018;28;20472;-63
2022/12/02 23:07:35;;;;;;;46.28;25.85;;;;;;;;;;10258862;28;20661;-63
2022/12/02 23:12:33;;;;;;;53.92;26.20;;;;;;;;;;10259059;28;20087;-62
2022/12/02 23:17:31;;;;;;;50.85;24.63;;;;;;;;;;10254861;28;20163;-64
2022/12/02 23:22:31;;;;;;;35.22;20.92;;;;;;;;;;10241239;28;20057;-63
2022/12/02 23:27:33;;;;;;;38.90;22.35;;;;;;;;;;10240956;28;20053;-63
2022/12/02 23:32:31;;;;;;;40.50;22.98;;;;;;;;;;10238966;28;20088;-63
2022/12/02 23:37:30;;;;;;;38.25;20.80;;;;;;;;;;10238976;28;20088;-64
2022/12/02 23:42:29;;;;;;;46.55;24.95;;;;;;;;;;10240588;28;20091;-64
2022/12/02 23:47:33;;;;;;;45.35;25.75;;;;;;;;;;10239573;28;20038;-62
2022/12/02 23:52:33;;;;;;;30.20;18.92;;;;;;;;;;10239909;28;20081;-63
2022/12/02 23:57:31;;;;;;;30.73;19.10;;;;;;;;;;10239431;28;20037;-63
